createdAt,value
2022-10-06T00:01:27.473Z,100.00
2022-10-06T00:03:54.406Z,100.00
2022-10-06T00:06:21.210Z,100.00
2022-10-06T00:08:48.326Z,100.00
2022-10-06T00:11:15.854Z,100.00
2022-10-06T00:13:43.054Z,100.00
2022-10-06T00:16:12.193Z,100.00
2022-10-06T00:18:39.594Z,100.00
2022-10-06T00:21:06.548Z,100.00
2022-10-06T00:23:33.628Z,100.00
2022-10-06T00:26:00.696Z,100.00
2022-10-06T00:28:28.103Z,100.00
2022-10-06T00:30:56.601Z,100.00
2022-10-06T00:33:24.451Z,100.00
2022-10-06T00:35:58.114Z,100.00
2022-10-06T00:38:26.181Z,100.00
2022-10-06T00:40:53.608Z,100.00
2022-10-06T00:43:48.257Z,100.00
2022-10-06T00:46:35.956Z,100.00
2022-10-06T00:49:21.789Z,100.00
2022-10-06T00:51:52.686Z,100.00
2022-10-06T00:54:20.177Z,100.00
2022-10-06T00:56:47.715Z,100.00
2022-10-06T00:59:16.635Z,100.00
2022-10-06T01:01:51.115Z,100.00
2022-10-06T01:04:18.698Z,100.00
2022-10-06T01:06:50.330Z,100.00
2022-10-06T01:09:17.832Z,100.00
2022-10-06T01:11:45.661Z,100.00
2022-10-06T01:14:12.932Z,100.00
2022-10-06T01:16:41.940Z,100.00
2022-10-06T01:19:17.810Z,100.00
2022-10-06T01:21:47.078Z,100.00
2022-10-06T01:24:14.697Z,100.00
2022-10-06T01:26:43.423Z,100.00
2022-10-06T01:29:10.735Z,100.00
2022-10-06T01:31:37.764Z,100.00
2022-10-06T01:34:04.652Z,100.00
2022-10-06T01:36:31.641Z,100.00
2022-10-06T01:38:58.810Z,100.00
2022-10-06T01:41:27.448Z,100.00
2022-10-06T01:43:54.613Z,100.00
2022-10-06T01:46:21.666Z,100.00
2022-10-06T01:48:48.695Z,100.00
2022-10-06T01:51:16.777Z,100.00
2022-10-06T01:53:44.235Z,100.00
2022-10-06T01:56:14.273Z,100.00
2022-10-06T01:58:41.035Z,100.00
2022-10-06T02:01:09.680Z,100.00
2022-10-06T02:03:38.016Z,100.00
2022-10-06T02:06:05.619Z,100.00
2022-10-06T02:08:33.483Z,100.00
2022-10-06T02:11:06.462Z,100.00
2022-10-06T02:13:34.596Z,100.00
2022-10-06T02:16:01.760Z,100.00
2022-10-06T02:18:28.860Z,100.00
2022-10-06T02:20:56.058Z,100.00
2022-10-06T02:23:23.490Z,100.00
2022-10-06T02:25:50.286Z,100.00
2022-10-06T02:28:17.352Z,100.00
2022-10-06T02:30:44.485Z,100.00
2022-10-06T02:33:11.189Z,100.00
2022-10-06T02:35:38.066Z,100.00
2022-10-06T02:38:04.933Z,100.00
2022-10-06T02:40:31.814Z,100.00
2022-10-06T02:42:59.031Z,100.00
2022-10-06T02:45:25.801Z,100.00
2022-10-06T02:47:54.857Z,100.00
2022-10-06T02:50:21.634Z,100.00
2022-10-06T02:52:48.370Z,100.00
2022-10-06T02:55:15.696Z,100.00
2022-10-06T02:57:42.320Z,100.00
2022-10-06T03:00:10.998Z,100.00
2022-10-06T03:02:38.107Z,100.00
2022-10-06T03:05:05.298Z,100.00
2022-10-06T03:07:32.107Z,100.00
2022-10-06T03:09:58.787Z,100.00
2022-10-06T03:12:25.916Z,100.00
2022-10-06T03:14:52.892Z,100.00
2022-10-06T03:17:19.722Z,100.00
2022-10-06T03:19:46.445Z,100.00
2022-10-06T03:22:13.353Z,100.00
2022-10-06T03:24:40.322Z,100.00
2022-10-06T03:27:07.254Z,100.00
2022-10-06T03:29:35.385Z,100.00
2022-10-06T03:32:02.402Z,100.00
2022-10-06T03:34:29.255Z,100.00
2022-10-06T03:36:56.254Z,100.00
2022-10-06T03:39:23.217Z,100.00
2022-10-06T03:41:50.133Z,100.00
2022-10-06T03:44:17.072Z,100.00
2022-10-06T03:46:43.826Z,99.17
2022-10-06T03:49:10.922Z,98.14
2022-10-06T03:51:40.262Z,96.71
2022-10-06T03:54:11.198Z,97.07
2022-10-06T03:56:41.405Z,98.01
2022-10-06T03:59:11.164Z,98.19
2022-10-06T04:01:46.189Z,98.01
2022-10-06T04:04:13.870Z,97.79
2022-10-06T04:06:43.312Z,95.52
2022-10-06T04:09:15.245Z,92.16
2022-10-06T04:11:43.546Z,91.38
2022-10-06T04:14:13.470Z,91.96
2022-10-06T04:16:50.573Z,91.56
2022-10-06T04:19:18.332Z,91.90
2022-10-06T04:21:47.093Z,92.63
2022-10-06T04:24:14.190Z,91.54
2022-10-06T04:26:45.268Z,92.49
2022-10-06T04:29:12.280Z,92.96
2022-10-06T04:31:41.240Z,91.87
2022-10-06T04:34:08.546Z,89.57
2022-10-06T04:36:39.875Z,89.26
2022-10-06T04:39:10.550Z,85.96
2022-10-06T04:41:39.826Z,85.68
2022-10-06T04:44:07.460Z,83.58
2022-10-06T04:46:43.613Z,85.53
2022-10-06T04:49:17.568Z,86.02
2022-10-06T04:51:46.569Z,86.14
2022-10-06T04:54:13.486Z,86.64
2022-10-06T04:56:40.831Z,87.12
2022-10-06T04:59:07.718Z,85.91
2022-10-06T05:01:36.632Z,85.78
2022-10-06T05:04:05.004Z,85.83
2022-10-06T05:06:37.268Z,84.75
2022-10-06T05:09:10.299Z,85.94
2022-10-06T05:11:38.341Z,86.07
2022-10-06T05:14:05.502Z,83.88
2022-10-06T05:16:32.695Z,83.71
2022-10-06T05:19:00.593Z,84.10
2022-10-06T05:21:30.230Z,83.58
2022-10-06T05:23:57.525Z,83.37
2022-10-06T05:26:28.033Z,84.25
2022-10-06T05:28:55.651Z,83.98
2022-10-06T05:31:33.732Z,84.71
2022-10-06T05:34:00.783Z,84.48
2022-10-06T05:36:29.976Z,84.70
2022-10-06T05:38:57.623Z,84.38
2022-10-06T05:41:29.107Z,84.01
2022-10-06T05:43:56.194Z,84.76
2022-10-06T05:46:25.583Z,84.76
2022-10-06T05:48:57.018Z,86.18
2022-10-06T05:51:30.353Z,85.82
2022-10-06T05:53:59.088Z,85.33
2022-10-06T05:56:36.888Z,86.28
2022-10-06T05:59:04.617Z,86.75
2022-10-06T06:01:34.993Z,86.61
2022-10-06T06:04:04.129Z,86.44
2022-10-06T06:06:39.071Z,87.62
2022-10-06T06:09:11.018Z,87.40
2022-10-06T06:11:43.634Z,87.73
2022-10-06T06:14:13.036Z,88.22
2022-10-06T06:16:41.051Z,88.71
2022-10-06T06:19:09.745Z,89.17
2022-10-06T06:21:36.854Z,89.46
2022-10-06T06:24:04.839Z,90.23
2022-10-06T06:26:34.247Z,90.77
2022-10-06T06:29:05.545Z,91.50
2022-10-06T06:31:40.086Z,92.09
2022-10-06T06:34:07.526Z,92.19
2022-10-06T06:36:37.149Z,91.81
2022-10-06T06:39:11.567Z,91.65
2022-10-06T06:41:43.183Z,91.35
2022-10-06T06:44:11.883Z,92.09
2022-10-06T06:46:39.489Z,90.64
2022-10-06T06:49:06.835Z,90.85
2022-10-06T06:51:35.691Z,90.60
2022-10-06T06:54:02.848Z,89.83
2022-10-06T06:56:35.492Z,89.35
2022-10-06T06:59:11.932Z,89.43
2022-10-06T07:01:46.045Z,87.78
2022-10-06T07:04:15.478Z,87.43
2022-10-06T07:06:46.770Z,86.41
2022-10-06T07:09:14.412Z,86.65
2022-10-06T07:11:41.249Z,86.78
2022-10-06T07:14:12.855Z,85.88
2022-10-06T07:16:58.626Z,85.42
2022-10-06T07:19:41.058Z,85.03
2022-10-06T07:22:46.751Z,83.19
2022-10-06T07:25:25.896Z,83.31
2022-10-06T07:27:53.976Z,85.48
2022-10-06T07:30:26.689Z,82.09
2022-10-06T07:32:53.879Z,82.13
2022-10-06T07:35:21.792Z,81.53
2022-10-06T07:37:49.887Z,81.26
2022-10-06T07:40:17.603Z,82.54
2022-10-06T07:42:52.200Z,83.98
2022-10-06T07:45:41.958Z,83.01
2022-10-06T07:48:14.787Z,82.00
2022-10-06T07:50:43.354Z,82.00
2022-10-06T07:53:10.223Z,81.74
2022-10-06T07:55:41.472Z,82.14
2022-10-06T07:58:18.783Z,81.21
2022-10-06T08:00:46.643Z,80.62
2022-10-06T08:03:18.343Z,80.96
2022-10-06T08:05:46.894Z,79.29
2022-10-06T08:08:15.059Z,79.61
2022-10-06T08:10:42.825Z,81.10
2022-10-06T08:13:10.759Z,80.46
2022-10-06T08:15:37.790Z,80.24
2022-10-06T08:18:16.429Z,79.15
2022-10-06T08:20:51.544Z,80.09
2022-10-06T08:23:18.318Z,80.35
2022-10-06T08:25:53.946Z,78.63
2022-10-06T08:28:22.536Z,78.57
2022-10-06T08:30:51.668Z,79.11
2022-10-06T08:33:21.251Z,75.79
2022-10-06T08:35:48.426Z,75.48
2022-10-06T08:38:15.436Z,76.43
2022-10-06T08:40:44.259Z,75.30
2022-10-06T08:43:16.724Z,75.18
2022-10-06T08:45:45.227Z,73.40
2022-10-06T08:48:19.341Z,73.44
2022-10-06T08:51:05.375Z,71.83
2022-10-06T08:53:39.621Z,70.22
2022-10-06T08:56:08.230Z,71.65
2022-10-06T08:58:50.723Z,71.93
2022-10-06T09:01:20.532Z,71.34
2022-10-06T09:03:49.307Z,72.38
2022-10-06T09:06:42.280Z,71.33
2022-10-06T09:09:35.512Z,70.30
2022-10-06T09:12:33.484Z,67.00
2022-10-06T09:15:15.981Z,66.74
2022-10-06T09:17:50.267Z,65.78
2022-10-06T09:20:20.759Z,65.21
2022-10-06T09:22:49.410Z,64.87
2022-10-06T09:25:20.425Z,66.68
2022-10-06T09:27:53.256Z,66.43
2022-10-06T09:30:20.625Z,65.36
2022-10-06T09:33:00.487Z,65.40
2022-10-06T09:35:31.924Z,65.65
2022-10-06T09:38:08.639Z,64.72
2022-10-06T09:40:49.481Z,64.78
2022-10-06T09:43:36.562Z,62.25
2022-10-06T09:46:29.432Z,60.81
2022-10-06T09:49:24.927Z,59.50
2022-10-06T09:52:24.019Z,61.16
2022-10-06T09:55:13.614Z,61.38
2022-10-06T09:57:49.512Z,61.46
2022-10-06T10:00:33.268Z,58.84
2022-10-06T10:03:05.169Z,56.50
2022-10-06T10:05:34.543Z,57.64
2022-10-06T10:08:09.338Z,57.51
2022-10-06T10:10:38.415Z,58.12
2022-10-06T10:13:24.756Z,57.82
2022-10-06T10:15:58.099Z,54.94
2022-10-06T10:18:30.714Z,54.76
2022-10-06T10:21:06.441Z,55.60
2022-10-06T10:23:39.548Z,56.46
2022-10-06T10:26:17.747Z,56.48
2022-10-06T10:29:44.053Z,57.36
2022-10-06T10:32:17.690Z,57.36
2022-10-06T10:35:02.947Z,57.61
2022-10-06T10:37:54.407Z,57.49
2022-10-06T10:40:56.205Z,59.41
2022-10-06T10:43:34.611Z,58.63
2022-10-06T10:46:06.437Z,57.85
2022-10-06T10:49:17.293Z,57.82
2022-10-06T10:52:02.337Z,57.75
2022-10-06T10:54:37.241Z,59.05
2022-10-06T10:57:04.269Z,58.61
2022-10-06T10:59:44.317Z,59.26
2022-10-06T11:02:15.991Z,57.98
2022-10-06T11:04:47.382Z,58.63
2022-10-06T11:07:29.741Z,57.96
2022-10-06T11:10:24.373Z,57.23
2022-10-06T11:13:19.416Z,56.97
2022-10-06T11:16:28.688Z,57.84
2022-10-06T11:19:17.529Z,58.56
2022-10-06T11:21:59.165Z,58.88
2022-10-06T11:24:49.822Z,57.25
2022-10-06T11:27:34.526Z,57.54
2022-10-06T11:30:12.208Z,58.84
2022-10-06T11:32:56.237Z,57.74
2022-10-06T11:35:27.171Z,57.01
2022-10-06T11:38:00.555Z,55.67
2022-10-06T11:41:09.856Z,55.58
2022-10-06T11:44:00.611Z,56.12
2022-10-06T11:46:44.827Z,55.78
2022-10-06T11:49:56.231Z,55.23
2022-10-06T11:52:43.438Z,55.32
2022-10-06T11:55:18.047Z,54.37
2022-10-06T12:01:02.565Z,54.77
2022-10-06T12:03:46.246Z,54.98
2022-10-06T12:06:40.724Z,54.73
2022-10-06T12:09:31.182Z,54.38
2022-10-06T12:12:03.034Z,54.16
2022-10-06T12:18:53.388Z,53.43
2022-10-06T12:21:26.266Z,53.63
2022-10-06T12:24:20.264Z,53.23
2022-10-06T12:26:55.952Z,53.53
2022-10-06T12:29:36.885Z,53.22
2022-10-06T12:32:58.484Z,52.54
2022-10-06T12:35:29.936Z,52.58
2022-10-06T12:38:00.717Z,51.56
2022-10-06T12:40:45.159Z,51.26
2022-10-06T12:43:32.778Z,51.58
2022-10-06T12:46:20.230Z,50.95
2022-10-06T12:49:04.548Z,51.17
2022-10-06T12:51:39.091Z,51.35
2022-10-06T12:54:15.500Z,51.07
2022-10-06T12:56:44.139Z,50.13
2022-10-06T12:59:42.930Z,50.49
2022-10-06T13:02:27.690Z,51.01
2022-10-06T13:04:58.074Z,51.20
2022-10-06T13:07:34.008Z,51.95
2022-10-06T13:10:21.649Z,51.77
2022-10-06T13:12:50.626Z,51.81
2022-10-06T13:15:29.343Z,50.76
2022-10-06T13:17:57.859Z,50.60
2022-10-06T13:20:49.540Z,51.25
2022-10-06T13:23:30.914Z,52.53
2022-10-06T13:26:03.159Z,50.91
2022-10-06T13:28:57.095Z,51.22
2022-10-06T13:31:28.707Z,51.24
2022-10-06T13:34:14.280Z,50.35
2022-10-06T13:36:43.424Z,50.96
2022-10-06T13:39:21.811Z,50.46
2022-10-06T13:42:04.607Z,50.57
2022-10-06T13:44:40.379Z,49.65
2022-10-06T13:47:22.775Z,50.56
2022-10-06T13:49:53.361Z,49.86
2022-10-06T13:52:23.568Z,49.42
2022-10-06T13:54:55.792Z,49.50
2022-10-06T13:57:39.734Z,48.58
2022-10-06T14:00:33.763Z,49.12
2022-10-06T14:03:10.843Z,48.72
2022-10-06T14:05:46.005Z,47.93
2022-10-06T14:08:25.010Z,48.37
2022-10-06T14:10:57.282Z,48.24
2022-10-06T14:13:32.729Z,48.41
2022-10-06T14:16:08.913Z,47.98
2022-10-06T14:18:47.268Z,48.78
2022-10-06T14:21:33.707Z,49.76
2022-10-06T14:24:06.055Z,48.26
2022-10-06T14:26:36.434Z,49.21
2022-10-06T14:29:03.754Z,48.19
2022-10-06T14:31:34.202Z,48.08
2022-10-06T14:34:02.100Z,49.37
2022-10-06T14:36:32.081Z,48.80
2022-10-06T14:39:00.548Z,48.79
2022-10-06T14:41:29.234Z,48.01
2022-10-06T14:44:08.908Z,48.73
2022-10-06T14:46:36.697Z,49.34
2022-10-06T14:49:08.026Z,49.90
2022-10-06T14:51:37.194Z,50.39
2022-10-06T14:54:05.417Z,49.99
2022-10-06T14:56:34.501Z,50.00
2022-10-06T14:59:05.775Z,49.95
2022-10-06T15:01:34.451Z,50.40
2022-10-06T15:04:06.367Z,50.29
2022-10-06T15:06:51.961Z,50.95
2022-10-06T15:09:19.131Z,51.60
2022-10-06T15:11:46.110Z,51.11
2022-10-06T15:14:13.199Z,51.48
2022-10-06T15:16:42.525Z,51.89
2022-10-06T15:19:12.183Z,51.88
2022-10-06T15:21:40.764Z,51.75
2022-10-06T15:24:10.221Z,52.19
2022-10-06T15:26:56.265Z,52.91
2022-10-06T15:29:23.213Z,52.72
2022-10-06T15:31:52.865Z,53.03
2022-10-06T15:34:26.404Z,53.16
2022-10-06T15:36:54.755Z,54.17
2022-10-06T15:39:24.404Z,53.94
2022-10-06T15:41:51.721Z,55.08
2022-10-06T15:44:19.853Z,54.27
2022-10-06T15:46:52.056Z,54.20
2022-10-06T15:49:24.031Z,54.27
2022-10-06T15:51:56.921Z,54.64
2022-10-06T15:54:52.276Z,55.17
2022-10-06T15:57:21.153Z,55.73
2022-10-06T15:59:48.684Z,56.84
2022-10-06T16:02:17.833Z,55.94
2022-10-06T16:04:57.223Z,56.29
2022-10-06T16:07:24.176Z,56.37
2022-10-06T16:09:52.181Z,56.49
2022-10-06T16:12:23.447Z,57.19
2022-10-06T16:14:50.703Z,56.87
2022-10-06T16:17:17.842Z,57.97
2022-10-06T16:19:45.072Z,58.25
2022-10-06T16:22:14.232Z,58.12
2022-10-06T16:24:41.429Z,61.20
2022-10-06T16:27:11.616Z,61.11
2022-10-06T16:29:38.760Z,62.64
2022-10-06T16:32:05.711Z,63.28
2022-10-06T16:34:33.517Z,64.10
2022-10-06T16:37:00.441Z,65.42
2022-10-06T16:39:27.340Z,66.22
2022-10-06T16:41:55.374Z,67.05
2022-10-06T16:44:22.621Z,67.50
2022-10-06T16:46:49.477Z,67.73
2022-10-06T16:49:16.465Z,67.83
2022-10-06T16:51:45.948Z,67.83
2022-10-06T16:54:14.804Z,67.12
2022-10-06T16:56:44.601Z,67.90
2022-10-06T16:59:13.806Z,69.56
2022-10-06T17:01:41.058Z,71.84
2022-10-06T17:04:16.622Z,72.06
2022-10-06T17:06:48.743Z,72.23
2022-10-06T17:09:19.832Z,73.33
2022-10-06T17:11:49.088Z,74.44
2022-10-06T17:14:16.730Z,74.92
2022-10-06T17:16:45.365Z,75.92
2022-10-06T17:19:14.420Z,76.30
2022-10-06T17:21:46.846Z,75.93
2022-10-06T17:24:14.834Z,76.32
2022-10-06T17:26:43.819Z,76.25
2022-10-06T17:29:17.821Z,77.45
2022-10-06T17:31:45.247Z,77.77
2022-10-06T17:34:20.713Z,79.17
2022-10-06T17:36:51.338Z,80.08
2022-10-06T17:39:21.497Z,80.60
2022-10-06T17:41:50.567Z,81.42
2022-10-06T17:44:23.493Z,81.43
2022-10-06T17:46:53.472Z,81.76
2022-10-06T17:49:21.988Z,82.62
2022-10-06T17:51:49.846Z,82.40
2022-10-06T17:54:20.195Z,82.23
2022-10-06T17:56:49.121Z,82.80
2022-10-06T17:59:28.699Z,82.58
2022-10-06T18:01:57.522Z,82.12
2022-10-06T18:04:25.232Z,84.32
2022-10-06T18:06:54.164Z,83.98
2022-10-06T18:09:21.963Z,84.10
2022-10-06T18:11:54.803Z,83.84
2022-10-06T18:14:27.456Z,84.36
2022-10-06T18:16:59.092Z,85.23
2022-10-06T18:19:30.436Z,83.91
2022-10-06T18:22:10.709Z,84.69
2022-10-06T18:24:38.545Z,85.78
2022-10-06T18:27:06.732Z,86.13
2022-10-06T18:29:35.586Z,86.01
2022-10-06T18:37:37.562Z,88.87
2022-10-06T18:40:07.155Z,88.56
2022-10-06T18:42:35.107Z,89.12
2022-10-06T18:45:20.995Z,88.00
2022-10-06T18:48:06.536Z,88.58
2022-10-06T18:50:33.826Z,88.46
2022-10-06T18:53:01.925Z,88.41
2022-10-06T18:55:30.034Z,88.38
2022-10-06T18:57:57.137Z,88.43
2022-10-06T19:00:26.155Z,88.28
2022-10-06T19:02:55.675Z,88.94
2022-10-06T19:05:23.965Z,90.21
2022-10-06T19:07:53.823Z,90.24
2022-10-06T19:10:21.011Z,90.42
2022-10-06T19:12:48.743Z,91.36
2022-10-06T19:15:20.438Z,89.29
2022-10-06T19:17:49.376Z,89.20
2022-10-06T19:20:16.918Z,88.96
2022-10-06T19:22:43.945Z,90.26
2022-10-06T19:25:11.712Z,90.44
2022-10-06T19:27:38.839Z,90.53
2022-10-06T19:30:06.260Z,90.77
2022-10-06T19:32:33.296Z,90.98
2022-10-06T19:35:00.589Z,91.76
2022-10-06T19:37:29.119Z,92.02
2022-10-06T19:39:55.967Z,92.48
2022-10-06T19:42:41.273Z,91.98
2022-10-06T19:45:10.174Z,92.02
2022-10-06T19:47:37.238Z,91.78
2022-10-06T19:50:10.419Z,91.69
2022-10-06T19:52:38.272Z,91.21
2022-10-06T19:55:05.693Z,91.53
2022-10-06T19:57:34.098Z,91.45
2022-10-06T20:00:01.176Z,91.44
2022-10-06T20:02:29.227Z,91.37
2022-10-06T20:04:56.713Z,91.73
2022-10-06T20:07:27.842Z,92.36
2022-10-06T20:09:56.107Z,92.56
2022-10-06T20:12:25.171Z,92.33
2022-10-06T20:14:56.326Z,91.41
2022-10-06T20:17:23.634Z,92.98
2022-10-06T20:19:56.675Z,93.34
2022-10-06T20:22:25.684Z,92.98
2022-10-06T20:24:53.298Z,93.56
2022-10-06T20:27:20.465Z,92.95
2022-10-06T20:29:47.586Z,92.35
2022-10-06T20:32:14.744Z,93.45
2022-10-06T20:34:41.676Z,93.58
2022-10-06T20:37:09.014Z,94.15
2022-10-06T20:39:54.417Z,93.69
2022-10-06T20:42:21.894Z,93.61
2022-10-06T20:44:49.246Z,93.48
2022-10-06T20:47:17.332Z,94.27
2022-10-06T20:49:45.176Z,95.18
2022-10-06T20:52:15.195Z,95.12
2022-10-06T20:54:42.523Z,92.77
2022-10-06T20:57:09.869Z,93.51
2022-10-06T20:59:37.803Z,93.45
2022-10-06T21:02:06.031Z,94.84
2022-10-06T21:04:35.013Z,94.36
2022-10-06T21:07:04.457Z,94.77
2022-10-06T21:09:31.894Z,95.03
2022-10-06T21:11:58.887Z,95.30
2022-10-06T21:14:26.322Z,94.24
2022-10-06T21:16:53.502Z,94.75
2022-10-06T21:19:21.382Z,95.19
2022-10-06T21:21:53.618Z,95.37
2022-10-06T21:24:20.967Z,95.10
2022-10-06T21:26:48.467Z,95.48
2022-10-06T21:29:16.199Z,94.74
2022-10-06T21:31:44.656Z,94.33
2022-10-06T21:34:12.327Z,94.92
2022-10-06T21:36:39.846Z,95.61
2022-10-06T21:39:07.571Z,95.01
2022-10-06T21:41:39.433Z,95.06
2022-10-06T21:44:15.280Z,95.89
2022-10-06T21:46:46.454Z,96.16
2022-10-06T21:49:15.575Z,96.42
2022-10-06T21:51:46.018Z,96.37
2022-10-06T21:54:13.915Z,95.88
2022-10-06T21:56:41.359Z,95.12
2022-10-06T21:59:08.701Z,95.50
2022-10-06T22:01:37.819Z,94.96
2022-10-06T22:04:05.997Z,96.05
2022-10-06T22:06:35.347Z,96.02
2022-10-06T22:09:10.957Z,96.20
2022-10-06T22:11:39.398Z,96.72
2022-10-06T22:14:09.306Z,95.00
2022-10-06T22:16:36.926Z,95.27
2022-10-06T22:19:06.383Z,94.59
2022-10-06T22:21:44.292Z,96.86
2022-10-06T22:24:13.936Z,96.78
2022-10-06T22:26:42.570Z,96.52
2022-10-06T22:29:12.511Z,96.59
2022-10-06T22:31:41.805Z,96.62
2022-10-06T22:34:11.198Z,97.69
2022-10-06T22:36:39.249Z,95.51
2022-10-06T22:39:06.560Z,96.08
2022-10-06T22:41:33.449Z,96.59
2022-10-06T22:44:00.668Z,95.23
2022-10-06T22:46:30.085Z,94.86
2022-10-06T22:48:57.551Z,95.06
2022-10-06T22:51:25.086Z,95.13
2022-10-06T22:53:58.815Z,95.54
2022-10-06T22:56:28.392Z,95.36
2022-10-06T22:58:55.757Z,95.95
2022-10-06T23:01:23.078Z,95.42
2022-10-06T23:03:50.284Z,95.84
2022-10-06T23:06:18.429Z,94.55
2022-10-06T23:08:45.673Z,95.23
2022-10-06T23:11:15.033Z,95.53
2022-10-06T23:13:43.607Z,96.27
2022-10-06T23:16:12.802Z,97.02
2022-10-06T23:18:42.778Z,96.90
2022-10-06T23:21:19.449Z,97.27
2022-10-06T23:23:46.999Z,97.52
2022-10-06T23:26:15.928Z,96.48
2022-10-06T23:28:43.867Z,95.92
2022-10-06T23:31:14.452Z,96.85
2022-10-06T23:33:42.450Z,96.98
2022-10-06T23:36:12.037Z,96.90
2022-10-06T23:38:39.918Z,96.54
2022-10-06T23:41:07.381Z,96.52
2022-10-06T23:43:35.121Z,97.75
2022-10-06T23:46:02.876Z,97.41
2022-10-06T23:48:30.456Z,97.03
2022-10-06T23:51:05.650Z,96.78
2022-10-06T23:53:33.216Z,96.93
2022-10-06T23:56:00.603Z,98.55
2022-10-06T23:58:28.132Z,98.04
